Time;durP1;ratioP1;P1;durP2;ratioP2;P2;SDS_P1;SDS_P2;PMS_P1;PMS_P2;Temp;Humidity;BMP_temperature;BMP_pressure;BME280_temperature;BME280_humidity;BME280_pressure;Samples;Min_cycle;Max_cycle;Signal;HPM_P1;HPM_P2
2022/04/01 00:00:08;;;;;;;1.63;1.23;;;11.70;57.90;;;;;;5126969;27;20024;-68
2022/04/01 00:02:34;;;;;;;1.00;0.90;;;11.70;57.90;;;;;;5109809;27;20035;-68
2022/04/01 00:05:00;;;;;;;1.40;1.10;;;11.70;57.90;;;;;;5135924;27;20484;-68
2022/04/01 00:07:25;;;;;;;1.50;0.93;;;11.70;57.90;;;;;;5135039;27;20035;-68
2022/04/01 00:09:51;;;;;;;5.03;1.30;;;11.60;58.00;;;;;;5135792;27;20031;-68
2022/04/01 00:12:17;;;;;;;1.38;1.10;;;11.60;58.10;;;;;;5135579;27;20459;-69
2022/04/01 00:14:43;;;;;;;1.35;1.25;;;11.60;58.10;;;;;;5117587;27;20034;-69
2022/04/01 00:17:09;;;;;;;1.65;1.33;;;11.60;58.20;;;;;;5135791;27;20023;-68
2022/04/01 00:19:34;;;;;;;2.55;1.40;;;11.60;58.30;;;;;;5136056;27;20102;-68
2022/04/01 00:22:00;;;;;;;1.92;1.30;;;11.60;58.20;;;;;;5117533;27;20062;-68
2022/04/01 00:24:27;;;;;;;1.40;1.20;;;11.60;58.00;;;;;;5135651;27;20057;-68
2022/04/01 00:26:52;;;;;;;1.45;1.13;;;11.70;58.00;;;;;;5133845;27;20450;-68
2022/04/01 00:29:20;;;;;;;3.53;0.93;;;11.70;58.10;;;;;;5130961;27;20312;-68
2022/04/01 00:31:48;;;;;;;3.83;0.73;;;11.70;58.10;;;;;;5116368;27;20027;-68
2022/04/01 00:34:15;;;;;;;1.30;0.95;;;11.70;58.00;;;;;;5129157;27;20035;-68
2022/04/01 00:36:50;;;;;;;0.75;0.75;;;11.70;58.00;;;;;;5134525;27;20092;-68
2022/04/01 00:39:18;;;;;;;1.80;0.93;;;11.60;57.80;;;;;;5102927;28;20043;-68
2022/04/01 00:41:45;;;;;;;0.95;0.80;;;11.60;57.80;;;;;;5096708;28;20032;-69
2022/04/01 00:44:17;;;;;;;1.27;0.95;;;11.70;58.00;;;;;;5112850;27;20084;-68
2022/04/01 00:46:45;;;;;;;0.80;0.73;;;11.60;57.90;;;;;;5115996;27;20031;-68
2022/04/01 00:49:11;;;;;;;1.23;0.80;;;11.60;57.70;;;;;;5116919;27;20027;-68
2022/04/01 00:51:40;;;;;;;1.00;0.80;;;11.60;57.70;;;;;;5135142;27;20415;-68
2022/04/01 00:54:06;;;;;;;1.42;0.95;;;11.60;57.70;;;;;;5116629;27;20035;-68
2022/04/01 00:56:34;;;;;;;1.75;1.27;;;11.60;57.60;;;;;;5129389;27;20030;-68
2022/04/01 00:59:00;;;;;;;1.13;1.00;;;11.60;57.60;;;;;;5134521;27;20023;-68
2022/04/01 01:01:26;;;;;;;1.20;0.98;;;11.60;57.70;;;;;;5115904;27;20096;-68
2022/04/01 01:03:52;;;;;;;1.40;0.90;;;11.60;57.60;;;;;;5134595;27;20068;-68
2022/04/01 01:06:21;;;;;;;2.92;1.10;;;11.60;57.50;;;;;;5115182;28;20043;-68
2022/04/01 01:08:48;;;;;;;0.93;0.80;;;11.60;57.50;;;;;;5104005;28;20141;-68
2022/04/01 01:11:14;;;;;;;1.38;1.00;;;11.50;57.40;;;;;;5114540;28;20085;-68
2022/04/01 01:13:40;;;;;;;1.52;0.85;;;11.50;57.50;;;;;;5114476;28;20051;-68
2022/04/01 01:16:07;;;;;;;0.93;0.70;;;11.50;57.60;;;;;;5095935;28;20027;-67
2022/04/01 01:18:34;;;;;;;1.23;0.90;;;11.50;57.60;;;;;;5126061;27;20033;-68
2022/04/01 01:20:59;;;;;;;1.45;1.00;;;11.50;57.60;;;;;;5114853;27;20027;-68
2022/04/01 01:23:32;;;;;;;1.20;1.00;;;11.50;57.70;;;;;;5115802;27;20030;-68
2022/04/01 01:25:58;;;;;;;1.55;1.00;;;11.50;57.50;;;;;;5116209;27;20030;-68
2022/04/01 01:28:24;;;;;;;1.35;0.90;;;11.40;57.30;;;;;;5132827;27;20038;-68
2022/04/01 01:30:50;;;;;;;2.35;0.98;;;11.40;57.20;;;;;;5110807;27;20526;-68
2022/04/01 01:33:20;;;;;;;1.20;0.98;;;11.40;57.30;;;;;;5116012;27;20028;-67
2022/04/01 01:35:46;;;;;;;1.63;0.85;;;11.30;57.30;;;;;;5115751;27;20061;-68
2022/04/01 01:38:19;;;;;;;1.25;0.93;;;11.30;57.30;;;;;;5132964;27;20027;-68
2022/04/01 01:40:45;;;;;;;1.45;1.20;;;11.30;57.30;;;;;;5134251;27;20047;-67
2022/04/01 01:43:13;;;;;;;1.10;0.98;;;11.30;57.40;;;;;;5116067;27;20023;-68
2022/04/01 01:45:39;;;;;;;2.42;0.95;;;11.30;57.30;;;;;;5131470;27;20027;-68
2022/04/01 01:48:06;;;;;;;3.45;0.82;;;11.20;57.20;;;;;;5127954;27;20027;-68
2022/04/01 01:56:08;;;;;;;;;;;11.30;57.70;;;;;;5134741;27;20049;-68
2022/04/01 01:58:34;;;;;;;1.02;0.82;;;11.30;57.70;;;;;;5133687;27;20409;-68
2022/04/01 02:01:00;;;;;;;2.25;1.05;;;11.30;57.50;;;;;;5123865;27;20023;-68
2022/04/01 02:03:26;;;;;;;1.15;1.05;;;11.20;57.30;;;;;;5134265;27;20034;-68
2022/04/01 02:05:51;;;;;;;1.23;1.00;;;11.20;57.30;;;;;;5123332;27;20110;-68
2022/04/01 02:08:17;;;;;;;1.40;1.05;;;11.20;57.30;;;;;;5134453;27;20031;-68
2022/04/01 02:10:43;;;;;;;1.30;1.20;;;11.10;57.10;;;;;;5134066;27;20478;-68
2022/04/01 02:13:09;;;;;;;1.20;1.10;;;11.20;57.20;;;;;;5111582;28;20027;-68
2022/04/01 02:15:35;;;;;;;1.40;1.17;;;11.10;56.90;;;;;;5092872;28;20134;-68
2022/04/01 02:18:00;;;;;;;1.73;1.20;;;11.10;56.90;;;;;;5126154;27;20027;-68
2022/04/01 02:20:26;;;;;;;1.48;1.10;;;11.10;56.70;;;;;;5133552;28;20023;-68
2022/04/01 02:22:54;;;;;;;1.98;1.10;;;11.00;56.90;;;;;;5125715;28;20030;-68
2022/04/01 02:25:19;;;;;;;1.58;1.13;;;11.00;56.80;;;;;;5115193;28;20027;-68
2022/04/01 02:27:45;;;;;;;1.38;1.02;;;11.00;57.00;;;;;;5129156;28;20406;-68
2022/04/01 02:30:11;;;;;;;1.77;1.38;;;11.00;57.20;;;;;;5132740;28;20038;-68
2022/04/01 02:32:41;;;;;;;1.75;1.13;;;11.00;57.20;;;;;;5111137;28;20029;-67
2022/04/01 02:35:09;;;;;;;1.17;1.05;;;11.00;57.20;;;;;;5090116;28;20027;-68
2022/04/01 02:37:35;;;;;;;1.30;1.20;;;11.00;57.00;;;;;;5106601;28;20019;-68
2022/04/01 02:40:03;;;;;;;1.00;0.90;;;11.00;57.20;;;;;;5110666;28;20142;-68
2022/04/01 02:42:29;;;;;;;2.30;1.40;;;11.00;57.10;;;;;;5130003;28;20027;-68
2022/04/01 02:44:56;;;;;;;1.23;1.05;;;11.00;57.30;;;;;;5112978;28;20118;-68
2022/04/01 02:47:22;;;;;;;1.08;0.80;;;11.00;57.30;;;;;;5108954;28;20040;-68
2022/04/01 02:49:48;;;;;;;1.42;1.10;;;11.00;57.30;;;;;;5127882;28;20036;-67
2022/04/01 02:52:14;;;;;;;6.07;1.02;;;11.00;57.20;;;;;;5111436;28;20019;-67
2022/04/01 02:54:40;;;;;;;4.85;1.23;;;11.00;57.30;;;;;;5119620;28;20076;-68
2022/04/01 02:57:06;;;;;;;1.80;1.13;;;11.00;57.40;;;;;;5113046;28;20102;-68
2022/04/01 02:59:31;;;;;;;1.80;1.30;;;11.00;57.40;;;;;;5112323;28;20094;-68
2022/04/01 03:01:57;;;;;;;1.73;1.30;;;11.00;57.20;;;;;;5129726;28;20129;-67
2022/04/01 03:04:23;;;;;;;1.42;1.10;;;11.00;57.10;;;;;;5128062;28;20450;-68
2022/04/01 03:06:49;;;;;;;1.20;1.10;;;11.00;57.10;;;;;;5126488;28;20024;-68
2022/04/01 03:09:15;;;;;;;1.75;1.25;;;11.00;57.00;;;;;;5127632;28;20363;-68
2022/04/01 03:11:42;;;;;;;2.45;1.52;;;11.00;57.00;;;;;;5111360;28;20454;-68
2022/04/01 03:14:09;;;;;;;4.50;1.45;;;11.00;57.10;;;;;;5131278;28;20210;-67
2022/04/01 03:16:37;;;;;;;1.52;1.20;;;11.00;57.00;;;;;;5113551;28;20030;-68
2022/04/01 03:19:08;;;;;;;1.77;1.40;;;11.00;56.90;;;;;;5113598;28;20053;-67
2022/04/01 03:21:35;;;;;;;2.00;1.20;;;11.00;57.00;;;;;;5131897;28;20521;-68
2022/04/01 03:24:02;;;;;;;2.53;1.25;;;11.00;57.10;;;;;;5132259;28;20039;-68
2022/04/01 03:26:28;;;;;;;1.75;1.50;;;11.00;57.10;;;;;;5113838;28;20039;-68
2022/04/01 03:28:55;;;;;;;1.42;1.33;;;11.00;57.20;;;;;;5122961;28;20028;-68
2022/04/01 03:31:21;;;;;;;2.95;2.00;;;11.00;57.30;;;;;;5111744;27;20031;-68
2022/04/01 03:33:47;;;;;;;2.25;1.80;;;11.00;57.50;;;;;;5133116;27;20027;-68
2022/04/01 03:36:13;;;;;;;2.67;2.20;;;11.00;57.50;;;;;;5135027;27;20095;-68
2022/04/01 03:38:40;;;;;;;2.55;2.20;;;11.00;57.40;;;;;;5129014;27;20114;-68
2022/04/01 03:41:06;;;;;;;3.15;2.30;;;11.00;57.10;;;;;;5117823;27;20039;-68
2022/04/01 03:43:34;;;;;;;3.17;2.33;;;11.00;57.10;;;;;;5136211;27;20102;-68
2022/04/01 03:46:08;;;;;;;3.47;2.22;;;11.00;57.10;;;;;;5136677;27;20030;-67
2022/04/01 03:49:00;;;;;;;4.07;2.60;;;11.00;56.90;;;;;;5136762;27;20062;-68
2022/04/01 03:51:28;;;;;;;3.72;2.88;;;11.00;56.60;;;;;;5136119;27;20031;-67
2022/04/01 03:54:02;;;;;;;3.28;2.67;;;11.00;56.60;;;;;;5135558;27;20379;-68
2022/04/01 03:56:36;;;;;;;3.07;2.57;;;11.00;56.70;;;;;;5109630;28;20169;-68
2022/04/01 03:59:05;;;;;;;3.28;2.40;;;11.00;56.70;;;;;;5097879;27;20020;-68
2022/04/01 04:01:31;;;;;;;2.88;2.20;;;11.00;56.80;;;;;;5097377;28;20477;-68
2022/04/01 04:03:58;;;;;;;2.85;2.33;;;10.90;56.80;;;;;;5115608;28;20074;-68
2022/04/01 04:06:25;;;;;;;4.00;2.83;;;11.00;56.90;;;;;;5116083;28;20682;-68
2022/04/01 04:08:58;;;;;;;4.20;2.70;;;11.00;57.00;;;;;;5117655;27;20455;-68
2022/04/01 04:11:26;;;;;;;4.18;2.45;;;11.00;57.10;;;;;;5117436;27;20167;-68
2022/04/01 04:13:53;;;;;;;3.30;2.50;;;11.00;57.10;;;;;;5136252;27;20068;-69
2022/04/01 04:16:29;;;;;;;2.88;2.40;;;11.00;57.10;;;;;;5117923;27;20034;-68
2022/04/01 04:19:16;;;;;;;2.85;2.33;;;11.00;57.00;;;;;;5135773;27;20026;-69
2022/04/01 04:21:54;;;;;;;4.63;3.03;;;11.00;57.00;;;;;;5136061;27;20029;-67
2022/04/01 04:24:29;;;;;;;5.55;3.28;;;11.00;57.00;;;;;;5127731;27;20498;-67
2022/04/01 04:27:01;;;;;;;3.80;3.10;;;11.00;56.80;;;;;;5127803;27;20123;-68
2022/04/01 04:29:30;;;;;;;3.80;2.83;;;11.00;56.70;;;;;;5126544;27;20035;-67
2022/04/01 04:32:04;;;;;;;5.00;2.92;;;11.00;56.80;;;;;;5116554;27;20027;-68
2022/04/01 04:34:38;;;;;;;3.70;3.30;;;11.00;56.80;;;;;;5117335;27;20027;-69
2022/04/01 04:37:11;;;;;;;4.07;3.10;;;11.00;56.80;;;;;;5117400;27;20027;-68
2022/04/01 04:39:40;;;;;;;9.20;4.33;;;11.00;56.70;;;;;;5126456;27;20604;-68
2022/04/01 04:42:09;;;;;;;4.65;3.47;;;11.00;56.60;;;;;;5116839;27;20028;-68
2022/04/01 04:44:35;;;;;;;4.40;3.92;;;11.00;56.60;;;;;;5117084;27;20027;-68
2022/04/01 04:47:05;;;;;;;5.25;3.63;;;11.00;56.50;;;;;;5110123;27;20072;-67
2022/04/01 04:49:31;;;;;;;4.78;3.75;;;11.00;56.30;;;;;;5134830;27;20019;-67
2022/04/01 04:51:59;;;;;;;5.53;3.75;;;10.90;56.30;;;;;;5135372;27;20023;-68
2022/04/01 04:54:25;;;;;;;5.82;4.03;;;11.00;56.40;;;;;;5113854;27;20039;-67
2022/04/01 04:56:53;;;;;;;4.47;3.50;;;10.90;56.50;;;;;;5117029;27;20092;-68
2022/04/01 04:59:21;;;;;;;4.45;3.83;;;10.90;56.50;;;;;;5116234;27;20110;-68
2022/04/01 05:02:06;;;;;;;5.93;4.00;;;10.90;56.60;;;;;;5116363;27;20030;-68
2022/04/01 05:04:32;;;;;;;;;;;10.90;56.50;;;;;;5135530;27;20031;-68
2022/04/01 05:07:33;;;;;;;4.97;3.67;;;11.00;56.70;;;;;;5116580;27;19918;-68
2022/04/01 05:10:03;;;;;;;5.18;3.45;;;11.00;56.40;;;;;;5130242;27;20023;-68
2022/04/01 05:12:34;;;;;;;4.28;3.72;;;11.00;56.30;;;;;;5116190;27;20130;-68
2022/04/01 05:15:08;;;;;;;4.38;3.60;;;11.00;56.30;;;;;;5134990;27;20057;-68
2022/04/01 05:17:49;;;;;;;4.25;3.28;;;11.00;56.50;;;;;;5110942;27;20118;-68
2022/04/01 05:20:21;;;;;;;4.53;3.25;;;11.00;56.50;;;;;;5120189;27;20043;-68
2022/04/01 05:23:09;;;;;;;5.70;4.10;;;11.00;56.40;;;;;;5113830;28;20022;-69
2022/04/01 05:25:49;;;;;;;4.10;3.65;;;11.00;56.10;;;;;;5123131;27;20034;-68
2022/04/01 05:28:25;;;;;;;5.80;3.50;;;11.00;55.60;;;;;;5134504;27;20035;-68
2022/04/01 05:31:10;;;;;;;4.35;3.42;;;10.90;55.40;;;;;;5134196;27;20043;-68
2022/04/01 05:33:57;;;;;;;5.32;3.80;;;10.90;55.50;;;;;;5114978;27;20039;-69
2022/04/01 05:36:24;;;;;;;5.25;3.90;;;10.90;55.70;;;;;;5116267;27;20038;-68
2022/04/01 05:38:51;;;;;;;4.78;3.67;;;10.90;55.70;;;;;;5133684;27;20031;-69
2022/04/01 05:41:19;;;;;;;4.53;3.50;;;10.90;55.80;;;;;;5133342;27;20527;-68
2022/04/01 05:43:47;;;;;;;4.68;3.78;;;11.00;55.80;;;;;;5115338;27;20119;-68
2022/04/01 05:46:15;;;;;;;5.50;3.70;;;11.00;55.70;;;;;;5100785;27;20453;-69
2022/04/01 05:48:42;;;;;;;4.97;3.58;;;11.00;55.70;;;;;;5133327;27;20486;-68
2022/04/01 05:51:13;;;;;;;5.05;3.88;;;11.00;55.50;;;;;;5115961;27;20050;-68
2022/04/01 05:53:39;;;;;;;3.75;3.30;;;11.00;55.30;;;;;;5124076;27;20023;-68
2022/04/01 05:56:08;;;;;;;4.53;3.72;;;11.00;55.10;;;;;;5102445;27;20030;-68
2022/04/01 05:58:33;;;;;;;4.38;3.70;;;11.00;55.10;;;;;;5109173;27;20059;-68
2022/04/01 06:01:12;;;;;;;7.32;3.92;;;11.00;55.00;;;;;;5133883;27;20485;-69
2022/04/01 06:04:01;;;;;;;4.75;3.78;;;10.90;55.00;;;;;;5134646;27;20023;-68
2022/04/01 06:06:39;;;;;;;13.60;4.18;;;11.00;55.30;;;;;;5114851;27;20039;-68
2022/04/01 06:09:36;;;;;;;5.75;4.00;;;10.90;55.50;;;;;;5133895;27;20046;-68
2022/04/01 06:12:34;;;;;;;6.30;4.22;;;11.00;55.70;;;;;;5115638;27;20028;-68
2022/04/01 06:15:35;;;;;;;5.10;3.97;;;11.00;55.40;;;;;;5058780;28;20037;-69
2022/04/01 06:18:08;;;;;;;5.80;3.53;;;10.90;55.00;;;;;;5127299;28;20023;-69
2022/04/01 06:20:38;;;;;;;4.30;3.60;;;10.90;54.90;;;;;;5134131;28;20115;-69
2022/04/01 06:23:16;;;;;;;4.90;3.70;;;10.90;55.00;;;;;;5104520;28;20037;-68
2022/04/01 06:25:54;;;;;;;7.57;3.45;;;10.90;55.10;;;;;;5134095;28;20383;-69
2022/04/01 06:28:26;;;;;;;6.00;3.85;;;10.90;55.20;;;;;;5097832;28;20088;-69
2022/04/01 06:31:04;;;;;;;4.30;3.30;;;10.90;55.20;;;;;;5097397;28;20034;-68
2022/04/01 06:33:53;;;;;;;4.28;3.50;;;10.90;55.30;;;;;;5133202;28;20023;-68
2022/04/01 06:36:34;;;;;;;3.83;3.20;;;10.90;55.40;;;;;;5115022;28;20543;-69
2022/04/01 06:39:10;;;;;;;4.25;3.30;;;10.80;55.20;;;;;;5133828;28;20055;-68
2022/04/01 06:41:54;;;;;;;5.35;2.92;;;10.80;55.60;;;;;;5115461;28;20034;-68
2022/04/01 06:44:20;;;;;;;4.22;3.00;;;10.80;55.80;;;;;;5115301;28;20483;-69
2022/04/01 06:46:48;;;;;;;3.75;3.25;;;10.80;56.10;;;;;;5133592;28;20062;-68
2022/04/01 06:49:14;;;;;;;3.38;2.92;;;10.80;56.20;;;;;;5108241;28;20034;-68
2022/04/01 06:51:42;;;;;;;3.20;2.90;;;10.80;56.30;;;;;;5115277;28;20412;-68
2022/04/01 06:54:08;;;;;;;3.47;2.75;;;10.90;56.30;;;;;;5115137;28;20027;-68
2022/04/01 06:56:34;;;;;;;4.13;2.95;;;10.90;56.10;;;;;;5133484;28;20061;-69
2022/04/01 06:59:00;;;;;;;5.32;3.17;;;10.90;55.90;;;;;;5114188;28;20058;-69
2022/04/01 07:01:26;;;;;;;4.93;3.20;;;10.90;55.90;;;;;;5133419;28;20020;-68
2022/04/01 07:03:53;;;;;;;4.70;3.40;;;10.90;56.20;;;;;;5134148;27;20031;-68
2022/04/01 07:06:20;;;;;;;3.88;3.38;;;10.90;56.40;;;;;;5137651;27;20118;-69
2022/04/01 07:08:50;;;;;;;4.32;2.90;;;11.00;56.50;;;;;;5119181;27;20027;-69
2022/04/01 07:11:15;;;;;;;4.35;2.88;;;11.00;56.50;;;;;;5117091;27;20054;-68
2022/04/01 07:13:41;;;;;;;3.55;2.90;;;11.00;56.30;;;;;;5134770;27;20065;-67
2022/04/01 07:16:07;;;;;;;4.82;3.40;;;11.00;56.10;;;;;;5117582;27;20027;-69
2022/04/01 07:18:34;;;;;;;5.47;3.60;;;11.00;56.10;;;;;;5133290;27;20375;-68
2022/04/01 07:21:00;;;;;;;3.75;2.95;;;11.10;56.00;;;;;;5118443;27;20424;-69
2022/04/01 07:23:27;;;;;;;4.25;3.08;;;11.10;56.10;;;;;;5110616;27;20024;-69
2022/04/01 07:25:52;;;;;;;3.92;2.83;;;11.10;56.20;;;;;;5133972;27;20034;-69
2022/04/01 07:28:18;;;;;;;6.10;3.20;;;11.20;56.30;;;;;;5115564;27;20035;-69
2022/04/01 07:30:44;;;;;;;5.68;3.28;;;11.20;56.30;;;;;;5136463;27;20115;-69
2022/04/01 07:33:10;;;;;;;4.45;3.22;;;11.30;56.20;;;;;;5137193;27;20081;-69
2022/04/01 07:35:36;;;;;;;4.45;2.90;;;11.30;56.00;;;;;;5137475;27;20110;-70
2022/04/01 07:38:03;;;;;;;4.07;3.22;;;11.30;55.90;;;;;;5136047;27;20459;-69
2022/04/01 07:40:30;;;;;;;4.45;2.88;;;11.40;55.70;;;;;;5108098;27;20510;-70
2022/04/01 07:42:56;;;;;;;4.05;3.33;;;11.40;55.50;;;;;;5135082;27;20106;-70
2022/04/01 07:45:22;;;;;;;4.05;2.80;;;11.50;55.40;;;;;;5135403;27;20023;-68
2022/04/01 07:47:50;;;;;;;3.80;2.92;;;11.50;55.10;;;;;;5118307;27;20386;-69
2022/04/01 07:50:18;;;;;;;6.35;2.80;;;11.50;55.10;;;;;;5116900;27;20023;-69
2022/04/01 07:52:45;;;;;;;4.30;3.13;;;11.50;55.00;;;;;;5115683;27;20088;-70
2022/04/01 07:55:13;;;;;;;4.22;3.10;;;11.50;55.10;;;;;;5117615;27;20382;-69
2022/04/01 07:57:39;;;;;;;4.57;3.28;;;11.60;55.10;;;;;;5136622;27;20019;-68
2022/04/01 08:00:07;;;;;;;3.50;2.45;;;11.60;55.20;;;;;;5115544;27;20039;-70
2022/04/01 08:02:33;;;;;;;5.18;3.30;;;11.60;55.20;;;;;;5115446;27;20039;-70
2022/04/01 08:04:59;;;;;;;5.47;3.10;;;11.60;55.10;;;;;;5117618;27;20110;-69
2022/04/01 08:07:26;;;;;;;4.70;3.30;;;11.60;55.00;;;;;;5135201;27;20472;-69
2022/04/01 08:09:53;;;;;;;3.83;3.28;;;11.60;55.00;;;;;;5117093;27;20106;-69
2022/04/01 08:12:19;;;;;;;5.30;3.03;;;11.70;55.50;;;;;;5117150;27;20027;-69
2022/04/01 08:14:45;;;;;;;6.43;3.28;;;11.70;55.80;;;;;;5117117;27;20412;-69
2022/04/01 08:17:12;;;;;;;4.53;3.28;;;11.70;55.60;;;;;;5132563;27;20023;-68
2022/04/01 08:19:42;;;;;;;3.90;2.65;;;11.70;55.50;;;;;;5135135;27;20023;-68
2022/04/01 08:22:09;;;;;;;5.15;4.00;;;11.70;55.40;;;;;;5135556;27;20080;-69
2022/04/01 08:24:35;;;;;;;4.30;3.50;;;11.70;55.10;;;;;;5115708;27;20366;-69
2022/04/01 08:27:01;;;;;;;5.53;3.50;;;11.70;54.90;;;;;;5111860;27;20035;-68
2022/04/01 08:29:29;;;;;;;5.28;3.85;;;11.70;54.80;;;;;;5114630;27;20033;-68
2022/04/01 08:31:56;;;;;;;6.20;3.45;;;11.70;54.60;;;;;;5134669;27;20028;-69
2022/04/01 08:34:22;;;;;;;7.20;4.53;;;11.80;54.60;;;;;;5117127;27;20531;-70
2022/04/01 08:36:48;;;;;;;4.65;3.38;;;11.70;54.50;;;;;;5117087;27;20028;-69
2022/04/01 08:39:14;;;;;;;5.50;3.50;;;11.80;54.30;;;;;;5128041;27;20099;-69
2022/04/01 08:41:40;;;;;;;5.20;3.78;;;11.80;54.60;;;;;;5095525;28;20031;-69
2022/04/01 08:44:06;;;;;;;7.00;4.75;;;11.80;54.60;;;;;;5095597;28;20055;-70
2022/04/01 08:46:33;;;;;;;5.30;3.53;;;11.80;54.50;;;;;;5110722;28;20074;-69
2022/04/01 08:49:00;;;;;;;4.82;3.13;;;11.80;54.50;;;;;;5096115;28;20088;-69
2022/04/01 08:51:28;;;;;;;4.13;3.05;;;11.90;54.40;;;;;;5096300;28;20031;-68
2022/04/01 08:53:54;;;;;;;4.03;3.38;;;11.90;54.00;;;;;;5114488;28;20028;-68
2022/04/01 08:56:20;;;;;;;5.88;3.00;;;12.00;53.80;;;;;;5115052;28;20031;-68
2022/04/01 08:58:46;;;;;;;4.30;3.30;;;12.10;53.70;;;;;;5094880;28;20036;-68
2022/04/01 09:01:13;;;;;;;6.82;3.92;;;12.10;53.90;;;;;;5113851;28;20020;-69
2022/04/01 09:03:40;;;;;;;4.65;3.65;;;12.20;53.70;;;;;;5076066;28;20020;-69
2022/04/01 09:06:07;;;;;;;5.40;3.53;;;12.30;53.20;;;;;;5091364;28;20027;-69
2022/04/01 09:08:56;;;;;;;3.60;3.03;;;12.30;53.30;;;;;;5096135;28;20023;-68
2022/04/01 09:11:22;;;;;;;3.70;3.28;;;12.40;53.60;;;;;;5114566;28;20031;-69
2022/04/01 09:13:50;;;;;;;4.75;3.42;;;12.50;53.50;;;;;;5095638;28;20470;-69
2022/04/01 09:16:50;;;;;;;4.05;3.38;;;12.50;53.30;;;;;;5095155;28;20498;-69
2022/04/01 09:19:16;;;;;;;4.07;3.42;;;12.50;52.80;;;;;;5113388;28;20028;-69
2022/04/01 09:21:44;;;;;;;4.45;3.60;;;12.60;52.60;;;;;;5114018;28;20088;-70
2022/04/01 09:24:10;;;;;;;5.85;3.40;;;12.50;52.70;;;;;;5094841;28;20028;-69
2022/04/01 09:26:37;;;;;;;5.32;3.38;;;12.50;52.50;;;;;;5075478;28;20377;-69
2022/04/01 09:29:09;;;;;;;3.50;2.83;;;12.50;52.30;;;;;;5079742;28;20463;-69
2022/04/01 09:31:40;;;;;;;4.72;3.42;;;12.60;52.70;;;;;;5093918;28;20031;-68
2022/04/01 09:34:09;;;;;;;5.18;3.53;;;12.60;52.70;;;;;;5093629;28;20111;-69
2022/04/01 09:36:37;;;;;;;5.28;3.30;;;12.70;53.00;;;;;;5075209;28;20060;-69
2022/04/01 09:39:05;;;;;;;4.75;3.17;;;12.70;52.80;;;;;;5085561;27;20047;-69
2022/04/01 09:41:45;;;;;;;4.53;3.15;;;12.80;52.70;;;;;;5133448;27;20039;-68
2022/04/01 09:44:12;;;;;;;3.17;2.85;;;12.80;52.60;;;;;;5115673;27;20802;-68
2022/04/01 09:46:52;;;;;;;4.80;3.50;;;12.90;52.30;;;;;;5130085;27;20080;-69
2022/04/01 09:49:36;;;;;;;5.85;3.47;;;12.90;52.20;;;;;;5127651;27;20697;-68
2022/04/01 09:52:06;;;;;;;;;;;13.00;50.90;;;;;;5104475;27;20027;-69
2022/04/01 09:54:32;;;;;;;6.63;3.10;;;13.00;52.20;;;;;;5098771;28;19914;-68
2022/04/01 09:56:59;;;;;;;5.65;3.50;;;13.10;51.80;;;;;;5098702;27;20023;-69
2022/04/01 09:59:31;;;;;;;7.00;3.63;;;13.10;51.30;;;;;;5109913;27;20113;-68
2022/04/01 10:01:58;;;;;;;4.65;3.90;;;13.10;50.70;;;;;;5106335;27;20019;-68
2022/04/01 10:04:24;;;;;;;3.83;3.35;;;13.10;50.70;;;;;;5110503;27;20042;-68
2022/04/01 10:06:51;;;;;;;3.85;3.38;;;13.10;51.30;;;;;;5128508;27;20039;-69
2022/04/01 10:09:19;;;;;;;5.25;3.20;;;13.10;51.80;;;;;;5114848;28;20155;-68
2022/04/01 10:11:45;;;;;;;4.72;3.90;;;13.20;51.90;;;;;;5121572;27;20418;-68
2022/04/01 10:14:24;;;;;;;4.13;3.33;;;13.30;52.00;;;;;;5126891;27;20039;-68
2022/04/01 10:16:51;;;;;;;4.78;3.45;;;13.30;51.60;;;;;;5115327;27;20459;-69
2022/04/01 10:19:32;;;;;;;3.85;3.40;;;13.40;51.90;;;;;;5115269;28;20510;-69
2022/04/01 10:21:59;;;;;;;5.10;3.80;;;13.40;51.80;;;;;;5133803;28;20027;-68
2022/04/01 10:24:49;;;;;;;3.85;3.15;;;13.50;51.00;;;;;;5115316;28;20161;-69
2022/04/01 10:27:40;;;;;;;6.05;4.00;;;13.50;50.50;;;;;;5132748;28;20109;-68
2022/04/01 10:30:09;;;;;;;4.75;3.75;;;13.50;50.80;;;;;;5133066;28;20027;-69
2022/04/01 10:32:34;;;;;;;4.72;3.40;;;13.60;50.80;;;;;;5094593;28;20036;-68
2022/04/01 10:35:02;;;;;;;7.05;3.83;;;13.60;50.80;;;;;;5112723;27;20081;-68
2022/04/01 10:37:31;;;;;;;4.72;3.42;;;13.60;50.20;;;;;;5116587;27;20024;-69
2022/04/01 10:39:59;;;;;;;3.95;3.10;;;13.70;50.10;;;;;;5111784;27;20048;-69
2022/04/01 10:42:35;;;;;;;4.63;3.97;;;13.70;49.50;;;;;;5117654;27;20072;-68
2022/04/01 10:45:08;;;;;;;7.00;3.60;;;13.70;49.10;;;;;;5114482;28;20028;-68
2022/04/01 10:53:53;;;;;;;4.40;3.55;;;13.70;49.10;;;;;;5115240;28;20100;-69
2022/04/01 10:56:21;;;;;;;4.70;4.07;;;13.70;49.40;;;;;;5115676;28;20027;-69
2022/04/01 10:59:17;;;;;;;4.30;3.50;;;13.70;49.20;;;;;;5125879;27;20035;-70
2022/04/01 11:01:52;;;;;;;4.85;3.95;;;13.70;49.40;;;;;;5121481;27;20460;-68
2022/04/01 11:04:18;;;;;;;6.35;4.00;;;13.80;49.40;;;;;;5135952;27;20035;-68
2022/04/01 11:06:54;;;;;;;5.70;4.07;;;13.90;49.20;;;;;;5118339;27;20363;-68
2022/04/01 11:09:35;;;;;;;7.05;3.97;;;13.90;49.10;;;;;;5115593;27;20035;-68
2022/04/01 11:12:19;;;;;;;4.78;3.90;;;14.00;49.40;;;;;;5117335;27;20127;-70
2022/04/01 11:14:56;;;;;;;5.78;3.92;;;14.10;49.00;;;;;;5109060;27;20035;-69
2022/04/01 11:17:34;;;;;;;3.92;3.45;;;14.20;49.60;;;;;;5118434;27;20523;-69
2022/04/01 11:20:07;;;;;;;5.55;3.83;;;14.20;48.70;;;;;;5117711;27;20023;-70
2022/04/01 11:22:46;;;;;;;5.25;4.30;;;14.30;48.50;;;;;;5136598;27;20023;-68
2022/04/01 11:25:13;;;;;;;6.25;4.18;;;14.30;48.00;;;;;;5115068;28;20029;-69
2022/04/01 11:28:10;;;;;;;5.72;4.22;;;14.30;48.00;;;;;;5114960;28;20173;-68
2022/04/01 11:30:43;;;;;;;5.40;4.25;;;14.20;48.10;;;;;;5096195;28;20047;-68
2022/04/01 11:33:10;;;;;;;4.53;3.83;;;14.20;48.10;;;;;;5131411;27;20023;-68
2022/04/01 11:35:41;;;;;;;7.35;4.35;;;14.10;48.30;;;;;;5136110;27;20031;-68
2022/04/01 11:38:15;;;;;;;4.80;3.97;;;14.00;48.40;;;;;;5118073;27;20072;-69
2022/04/01 11:40:45;;;;;;;3.78;3.20;;;14.00;48.50;;;;;;5100179;27;20458;-68
2022/04/01 11:43:11;;;;;;;4.55;3.80;;;13.90;48.90;;;;;;5136743;27;20539;-68
2022/04/01 11:45:39;;;;;;;6.07;3.85;;;13.90;49.20;;;;;;5117751;27;20064;-68
2022/04/01 11:48:22;;;;;;;4.65;3.58;;;13.90;49.40;;;;;;5117616;27;20031;-68
2022/04/01 11:50:52;;;;;;;5.45;3.80;;;13.80;49.50;;;;;;5114689;27;20171;-67
2022/04/01 11:53:19;;;;;;;6.38;4.03;;;13.90;49.50;;;;;;5133654;27;20019;-68
2022/04/01 11:55:46;;;;;;;5.55;4.85;;;13.90;49.30;;;;;;5117651;27;20111;-68
2022/04/01 11:58:11;;;;;;;4.40;3.88;;;13.80;49.50;;;;;;5118379;27;20378;-68
2022/04/01 12:00:37;;;;;;;4.95;3.95;;;13.90;48.80;;;;;;5135386;27;20031;-68
2022/04/01 12:03:04;;;;;;;8.02;4.63;;;13.90;48.20;;;;;;5118206;27;20423;-68
2022/04/01 12:05:31;;;;;;;5.78;4.50;;;13.90;47.20;;;;;;5118131;27;20475;-68
2022/04/01 12:10:54;;;;;;;8.52;4.85;;;13.80;47.10;;;;;;5136474;27;20026;-68
2022/04/01 12:13:21;;;;;;;9.00;4.28;;;13.80;47.30;;;;;;5117791;27;20023;-68
2022/04/01 12:15:48;;;;;;;8.02;4.35;;;13.90;46.80;;;;;;5117872;27;20031;-68
2022/04/01 12:18:16;;;;;;;4.93;4.28;;;13.80;46.10;;;;;;5135990;27;20023;-68
2022/04/01 12:20:44;;;;;;;4.97;4.10;;;13.80;46.10;;;;;;5117483;27;20035;-67
2022/04/01 12:23:11;;;;;;;5.40;3.78;;;13.80;46.50;;;;;;5117717;27;20076;-68
2022/04/01 12:25:39;;;;;;;4.50;3.83;;;13.80;46.80;;;;;;5117820;27;20038;-68
2022/04/01 12:28:07;;;;;;;5.63;4.20;;;13.90;46.40;;;;;;5117387;27;20026;-68
2022/04/01 12:30:36;;;;;;;5.38;4.20;;;13.90;46.40;;;;;;5135156;27;20023;-68
2022/04/01 12:33:07;;;;;;;5.10;4.05;;;14.00;46.20;;;;;;5097334;28;20055;-68
2022/04/01 12:35:34;;;;;;;6.45;4.40;;;14.00;46.10;;;;;;5102075;27;20035;-68
2022/04/01 12:38:08;;;;;;;4.65;3.67;;;14.00;45.40;;;;;;5122317;27;20027;-68
2022/04/01 12:40:47;;;;;;;6.22;4.03;;;14.00;44.50;;;;;;5125091;27;20107;-68
2022/04/01 12:43:30;;;;;;;5.38;4.03;;;14.00;44.70;;;;;;5108382;27;20494;-68
2022/04/01 12:46:13;;;;;;;5.53;4.25;;;14.00;45.10;;;;;;5135787;27;20035;-67
2022/04/01 12:48:41;;;;;;;5.82;5.15;;;14.00;45.20;;;;;;5133717;27;20023;-67
2022/04/01 12:51:07;;;;;;;9.73;5.75;;;13.90;44.80;;;;;;5135470;27;20118;-68
2022/04/01 12:53:35;;;;;;;7.22;5.30;;;13.90;44.70;;;;;;5117217;27;20023;-68
2022/04/01 12:56:21;;;;;;;7.50;5.93;;;13.80;45.30;;;;;;5135573;27;20027;-68
2022/04/01 12:58:52;;;;;;;5.72;5.03;;;13.80;45.20;;;;;;5116617;27;20058;-68
2022/04/01 13:01:20;;;;;;;7.53;5.90;;;13.80;45.40;;;;;;5117195;27;20060;-67
2022/04/01 13:03:48;;;;;;;8.13;6.30;;;13.70;45.30;;;;;;5116711;27;20034;-68
2022/04/01 13:06:15;;;;;;;6.90;5.95;;;13.70;45.70;;;;;;5116733;27;20031;-67
2022/04/01 13:08:42;;;;;;;7.97;6.30;;;13.70;45.20;;;;;;5116935;27;20023;-68
2022/04/01 13:11:14;;;;;;;5.88;5.25;;;13.70;45.20;;;;;;5135453;27;20442;-68
2022/04/01 13:13:50;;;;;;;8.05;5.90;;;13.70;45.50;;;;;;5134913;27;20055;-68
2022/04/01 13:16:16;;;;;;;7.13;6.03;;;13.70;45.60;;;;;;5135316;27;20073;-68